sensor_id;sensor_type;location;lat;lon;timestamp;P1;durP1;ratioP1;P2;durP2;ratioP2
39322;SDS011;25036;53.638;10.134;2023-04-29T00:00:21;8.50;;;5.30;;
39322;SDS011;25036;53.638;10.134;2023-04-29T00:01:21;7.93;;;5.53;;
39322;SDS011;25036;53.638;10.134;2023-04-29T00:02:21;6.17;;;5.57;;
39322;SDS011;25036;53.638;10.134;2023-04-29T00:03:22;6.30;;;5.17;;
39322;SDS011;25036;53.638;10.134;2023-04-29T00:04:22;6.90;;;5.13;;
39322;SDS011;25036;53.638;10.134;2023-04-29T00:05:22;8.50;;;5.57;;
39322;SDS011;25036;53.638;10.134;2023-04-29T00:06:22;6.85;;;5.70;;
39322;SDS011;25036;53.638;10.134;2023-04-29T00:07:22;7.67;;;6.07;;
39322;SDS011;25036;53.638;10.134;2023-04-29T00:08:23;7.07;;;6.00;;
39322;SDS011;25036;53.638;10.134;2023-04-29T00:09:23;8.35;;;6.07;;
39322;SDS011;25036;53.638;10.134;2023-04-29T00:10:23;6.87;;;6.00;;
39322;SDS011;25036;53.638;10.134;2023-04-29T00:11:23;6.13;;;5.40;;
39322;SDS011;25036;53.638;10.134;2023-04-29T00:12:24;7.20;;;5.87;;
39322;SDS011;25036;53.638;10.134;2023-04-29T00:13:24;8.18;;;6.13;;
39322;SDS011;25036;53.638;10.134;2023-04-29T00:14:25;7.10;;;5.93;;
39322;SDS011;25036;53.638;10.134;2023-04-29T00:15:25;6.97;;;6.27;;
39322;SDS011;25036;53.638;10.134;2023-04-29T00:16:25;6.87;;;6.17;;
39322;SDS011;25036;53.638;10.134;2023-04-29T00:17:25;6.80;;;6.13;;
39322;SDS011;25036;53.638;10.134;2023-04-29T00:18:25;6.97;;;5.50;;
39322;SDS011;25036;53.638;10.134;2023-04-29T00:19:25;7.35;;;6.00;;
39322;SDS011;25036;53.638;10.134;2023-04-29T00:20:26;8.50;;;6.68;;
39322;SDS011;25036;53.638;10.134;2023-04-29T00:21:27;11.10;;;6.43;;
39322;SDS011;25036;53.638;10.134;2023-04-29T00:22:27;7.88;;;6.03;;
39322;SDS011;25036;53.638;10.134;2023-04-29T00:23:28;6.70;;;6.05;;
39322;SDS011;25036;53.638;10.134;2023-04-29T00:24:28;8.20;;;6.33;;
39322;SDS011;25036;53.638;10.134;2023-04-29T00:25:28;7.75;;;6.18;;
39322;SDS011;25036;53.638;10.134;2023-04-29T00:26:29;6.47;;;5.88;;
39322;SDS011;25036;53.638;10.134;2023-04-29T00:27:29;8.20;;;6.43;;
39322;SDS011;25036;53.638;10.134;2023-04-29T00:28:29;7.18;;;5.95;;
39322;SDS011;25036;53.638;10.134;2023-04-29T00:29:29;8.77;;;6.15;;
39322;SDS011;25036;53.638;10.134;2023-04-29T00:30:30;7.30;;;5.97;;
39322;SDS011;25036;53.638;10.134;2023-04-29T00:31:30;7.45;;;6.43;;
39322;SDS011;25036;53.638;10.134;2023-04-29T00:32:31;7.28;;;6.45;;
39322;SDS011;25036;53.638;10.134;2023-04-29T00:33:31;7.77;;;6.00;;
39322;SDS011;25036;53.638;10.134;2023-04-29T00:34:32;7.70;;;6.15;;
39322;SDS011;25036;53.638;10.134;2023-04-29T00:35:32;10.05;;;6.38;;
39322;SDS011;25036;53.638;10.134;2023-04-29T00:36:32;7.63;;;6.20;;
39322;SDS011;25036;53.638;10.134;2023-04-29T00:37:32;8.55;;;6.38;;
39322;SDS011;25036;53.638;10.134;2023-04-29T00:38:33;9.25;;;6.45;;
39322;SDS011;25036;53.638;10.134;2023-04-29T00:39:34;11.37;;;6.10;;
39322;SDS011;25036;53.638;10.134;2023-04-29T00:40:34;7.80;;;5.87;;
39322;SDS011;25036;53.638;10.134;2023-04-29T00:41:35;7.13;;;5.97;;
39322;SDS011;25036;53.638;10.134;2023-04-29T00:42:35;7.85;;;6.20;;
39322;SDS011;25036;53.638;10.134;2023-04-29T00:43:36;6.93;;;6.13;;
39322;SDS011;25036;53.638;10.134;2023-04-29T00:44:36;7.97;;;6.45;;
39322;SDS011;25036;53.638;10.134;2023-04-29T00:45:36;9.88;;;6.35;;
39322;SDS011;25036;53.638;10.134;2023-04-29T00:46:36;7.50;;;6.37;;
39322;SDS011;25036;53.638;10.134;2023-04-29T00:47:37;9.80;;;6.22;;
39322;SDS011;25036;53.638;10.134;2023-04-29T00:48:37;7.68;;;6.40;;
39322;SDS011;25036;53.638;10.134;2023-04-29T00:49:38;6.82;;;6.07;;
39322;SDS011;25036;53.638;10.134;2023-04-29T00:50:38;7.18;;;6.47;;
39322;SDS011;25036;53.638;10.134;2023-04-29T00:51:39;6.88;;;6.18;;
39322;SDS011;25036;53.638;10.134;2023-04-29T00:52:39;6.90;;;6.20;;
39322;SDS011;25036;53.638;10.134;2023-04-29T00:53:40;6.78;;;6.07;;
39322;SDS011;25036;53.638;10.134;2023-04-29T00:54:41;7.55;;;6.15;;
39322;SDS011;25036;53.638;10.134;2023-04-29T00:55:41;8.68;;;6.40;;
39322;SDS011;25036;53.638;10.134;2023-04-29T00:56:42;7.88;;;5.93;;
39322;SDS011;25036;53.638;10.134;2023-04-29T00:57:44;10.25;;;6.95;;
39322;SDS011;25036;53.638;10.134;2023-04-29T00:58:47;8.02;;;6.40;;
39322;SDS011;25036;53.638;10.134;2023-04-29T00:59:49;8.43;;;5.85;;
39322;SDS011;25036;53.638;10.134;2023-04-29T01:00:49;7.70;;;6.20;;
39322;SDS011;25036;53.638;10.134;2023-04-29T01:01:49;10.23;;;5.78;;
39322;SDS011;25036;53.638;10.134;2023-04-29T01:02:50;7.78;;;6.43;;
39322;SDS011;25036;53.638;10.134;2023-04-29T01:03:51;8.88;;;5.68;;
39322;SDS011;25036;53.638;10.134;2023-04-29T01:04:51;8.13;;;6.78;;
39322;SDS011;25036;53.638;10.134;2023-04-29T01:06:03;6.60;;;5.90;;
39322;SDS011;25036;53.638;10.134;2023-04-29T01:07:17;7.95;;;5.90;;
39322;SDS011;25036;53.638;10.134;2023-04-29T01:08:28;8.20;;;5.68;;
39322;SDS011;25036;53.638;10.134;2023-04-29T01:11:15;7.43;;;6.00;;
39322;SDS011;25036;53.638;10.134;2023-04-29T01:12:31;6.22;;;5.57;;
39322;SDS011;25036;53.638;10.134;2023-04-29T01:13:42;6.38;;;5.78;;
39322;SDS011;25036;53.638;10.134;2023-04-29T01:14:45;7.45;;;6.07;;
39322;SDS011;25036;53.638;10.134;2023-04-29T01:16:22;7.60;;;5.85;;
39322;SDS011;25036;53.638;10.134;2023-04-29T01:17:14;6.85;;;5.68;;
39322;SDS011;25036;53.638;10.134;2023-04-29T01:18:24;10.13;;;6.40;;
39322;SDS011;25036;53.638;10.134;2023-04-29T01:19:36;8.10;;;6.28;;
39322;SDS011;25036;53.638;10.134;2023-04-29T01:20:39;7.75;;;6.38;;
39322;SDS011;25036;53.638;10.134;2023-04-29T01:21:46;7.63;;;6.82;;
39322;SDS011;25036;53.638;10.134;2023-04-29T01:22:47;7.32;;;6.47;;
39322;SDS011;25036;53.638;10.134;2023-04-29T01:23:47;7.80;;;6.82;;
39322;SDS011;25036;53.638;10.134;2023-04-29T01:24:54;7.53;;;6.15;;
39322;SDS011;25036;53.638;10.134;2023-04-29T01:25:55;8.48;;;6.85;;
39322;SDS011;25036;53.638;10.134;2023-04-29T01:26:56;6.80;;;6.07;;
39322;SDS011;25036;53.638;10.134;2023-04-29T01:29:08;7.72;;;6.38;;
39322;SDS011;25036;53.638;10.134;2023-04-29T01:31:24;7.68;;;6.32;;
39322;SDS011;25036;53.638;10.134;2023-04-29T01:32:28;7.88;;;6.72;;
39322;SDS011;25036;53.638;10.134;2023-04-29T01:33:35;10.68;;;7.30;;
39322;SDS011;25036;53.638;10.134;2023-04-29T01:34:49;8.77;;;7.30;;
39322;SDS011;25036;53.638;10.134;2023-04-29T01:38:00;8.45;;;6.65;;
39322;SDS011;25036;53.638;10.134;2023-04-29T01:39:08;8.02;;;7.25;;
39322;SDS011;25036;53.638;10.134;2023-04-29T01:41:17;7.35;;;6.65;;
39322;SDS011;25036;53.638;10.134;2023-04-29T01:42:21;7.97;;;6.53;;
39322;SDS011;25036;53.638;10.134;2023-04-29T01:43:23;9.45;;;7.22;;
39322;SDS011;25036;53.638;10.134;2023-04-29T01:44:28;7.95;;;7.20;;
39322;SDS011;25036;53.638;10.134;2023-04-29T01:45:28;9.45;;;6.85;;
39322;SDS011;25036;53.638;10.134;2023-04-29T01:46:29;9.88;;;7.32;;
39322;SDS011;25036;53.638;10.134;2023-04-29T01:47:30;8.75;;;7.13;;
39322;SDS011;25036;53.638;10.134;2023-04-29T01:48:30;7.70;;;6.80;;
39322;SDS011;25036;53.638;10.134;2023-04-29T01:49:34;7.53;;;6.82;;
39322;SDS011;25036;53.638;10.134;2023-04-29T01:50:34;8.57;;;6.97;;
39322;SDS011;25036;53.638;10.134;2023-04-29T01:51:34;9.02;;;7.20;;
39322;SDS011;25036;53.638;10.134;2023-04-29T01:52:34;7.88;;;7.07;;
39322;SDS011;25036;53.638;10.134;2023-04-29T01:53:35;9.23;;;7.03;;
39322;SDS011;25036;53.638;10.134;2023-04-29T01:54:35;8.57;;;6.80;;
39322;SDS011;25036;53.638;10.134;2023-04-29T01:55:36;11.98;;;7.93;;
39322;SDS011;25036;53.638;10.134;2023-04-29T01:56:36;8.10;;;7.33;;
39322;SDS011;25036;53.638;10.134;2023-04-29T01:57:36;9.13;;;7.60;;
39322;SDS011;25036;53.638;10.134;2023-04-29T01:58:37;7.70;;;6.82;;
39322;SDS011;25036;53.638;10.134;2023-04-29T01:59:37;9.50;;;7.00;;
39322;SDS011;25036;53.638;10.134;2023-04-29T02:00:37;8.40;;;7.20;;
39322;SDS011;25036;53.638;10.134;2023-04-29T02:01:37;8.18;;;7.03;;
39322;SDS011;25036;53.638;10.134;2023-04-29T02:02:37;7.70;;;6.90;;
39322;SDS011;25036;53.638;10.134;2023-04-29T02:03:38;7.93;;;7.13;;
39322;SDS011;25036;53.638;10.134;2023-04-29T02:04:38;7.55;;;6.75;;
39322;SDS011;25036;53.638;10.134;2023-04-29T02:05:38;8.50;;;6.90;;
39322;SDS011;25036;53.638;10.134;2023-04-29T02:06:38;8.13;;;7.00;;
39322;SDS011;25036;53.638;10.134;2023-04-29T02:07:38;9.98;;;7.43;;
39322;SDS011;25036;53.638;10.134;2023-04-29T02:08:39;8.32;;;6.68;;
39322;SDS011;25036;53.638;10.134;2023-04-29T02:09:39;8.10;;;7.30;;
39322;SDS011;25036;53.638;10.134;2023-04-29T02:10:39;9.90;;;7.22;;
39322;SDS011;25036;53.638;10.134;2023-04-29T02:11:39;8.23;;;6.95;;
39322;SDS011;25036;53.638;10.134;2023-04-29T02:12:39;9.57;;;7.20;;
39322;SDS011;25036;53.638;10.134;2023-04-29T02:13:39;9.02;;;7.10;;
39322;SDS011;25036;53.638;10.134;2023-04-29T02:14:40;9.27;;;7.43;;
39322;SDS011;25036;53.638;10.134;2023-04-29T02:15:40;7.87;;;6.83;;
39322;SDS011;25036;53.638;10.134;2023-04-29T02:16:42;9.15;;;7.68;;
39322;SDS011;25036;53.638;10.134;2023-04-29T02:17:43;9.05;;;7.32;;
39322;SDS011;25036;53.638;10.134;2023-04-29T02:18:43;12.53;;;7.17;;
39322;SDS011;25036;53.638;10.134;2023-04-29T02:19:43;8.83;;;7.47;;
39322;SDS011;25036;53.638;10.134;2023-04-29T02:20:43;9.93;;;7.40;;
39322;SDS011;25036;53.638;10.134;2023-04-29T02:21:43;8.88;;;7.50;;
39322;SDS011;25036;53.638;10.134;2023-04-29T02:22:43;9.30;;;7.87;;
39322;SDS011;25036;53.638;10.134;2023-04-29T02:23:43;9.77;;;7.70;;
39322;SDS011;25036;53.638;10.134;2023-04-29T02:24:44;9.95;;;7.90;;
39322;SDS011;25036;53.638;10.134;2023-04-29T02:25:44;9.73;;;8.20;;
39322;SDS011;25036;53.638;10.134;2023-04-29T02:26:44;9.30;;;8.40;;
39322;SDS011;25036;53.638;10.134;2023-04-29T02:27:44;8.97;;;8.07;;
39322;SDS011;25036;53.638;10.134;2023-04-29T02:28:44;8.98;;;7.95;;
39322;SDS011;25036;53.638;10.134;2023-04-29T02:29:45;10.30;;;8.07;;
39322;SDS011;25036;53.638;10.134;2023-04-29T02:30:45;10.00;;;8.20;;
39322;SDS011;25036;53.638;10.134;2023-04-29T02:31:45;9.40;;;7.93;;
39322;SDS011;25036;53.638;10.134;2023-04-29T02:32:46;9.15;;;7.35;;
39322;SDS011;25036;53.638;10.134;2023-04-29T02:33:46;8.55;;;7.68;;
39322;SDS011;25036;53.638;10.134;2023-04-29T02:34:46;8.82;;;7.93;;
39322;SDS011;25036;53.638;10.134;2023-04-29T02:35:46;11.70;;;8.47;;
39322;SDS011;25036;53.638;10.134;2023-04-29T02:36:46;9.83;;;8.73;;
39322;SDS011;25036;53.638;10.134;2023-04-29T02:37:46;8.87;;;7.27;;
39322;SDS011;25036;53.638;10.134;2023-04-29T02:38:47;11.02;;;8.38;;
39322;SDS011;25036;53.638;10.134;2023-04-29T02:39:49;11.65;;;8.75;;
39322;SDS011;25036;53.638;10.134;2023-04-29T02:40:49;11.83;;;9.10;;
39322;SDS011;25036;53.638;10.134;2023-04-29T02:41:52;9.88;;;7.70;;
39322;SDS011;25036;53.638;10.134;2023-04-29T02:42:52;9.68;;;7.88;;
39322;SDS011;25036;53.638;10.134;2023-04-29T02:43:52;10.83;;;8.53;;
39322;SDS011;25036;53.638;10.134;2023-04-29T02:44:53;8.60;;;7.80;;
39322;SDS011;25036;53.638;10.134;2023-04-29T02:45:53;8.95;;;7.70;;
39322;SDS011;25036;53.638;10.134;2023-04-29T02:46:53;8.43;;;7.53;;
39322;SDS011;25036;53.638;10.134;2023-04-29T02:47:53;10.33;;;7.80;;
39322;SDS011;25036;53.638;10.134;2023-04-29T02:48:53;8.80;;;7.60;;
39322;SDS011;25036;53.638;10.134;2023-04-29T02:49:53;8.57;;;7.00;;
39322;SDS011;25036;53.638;10.134;2023-04-29T02:50:54;8.33;;;7.50;;
39322;SDS011;25036;53.638;10.134;2023-04-29T02:51:54;8.97;;;8.07;;
39322;SDS011;25036;53.638;10.134;2023-04-29T02:52:54;8.38;;;7.57;;
39322;SDS011;25036;53.638;10.134;2023-04-29T02:53:54;9.57;;;7.53;;
39322;SDS011;25036;53.638;10.134;2023-04-29T02:54:55;9.10;;;8.18;;
39322;SDS011;25036;53.638;10.134;2023-04-29T02:55:55;9.30;;;8.15;;
39322;SDS011;25036;53.638;10.134;2023-04-29T02:56:56;7.97;;;7.18;;
39322;SDS011;25036;53.638;10.134;2023-04-29T02:57:57;10.07;;;7.53;;
39322;SDS011;25036;53.638;10.134;2023-04-29T02:58:57;11.80;;;7.57;;
39322;SDS011;25036;53.638;10.134;2023-04-29T02:59:58;7.83;;;7.13;;
39322;SDS011;25036;53.638;10.134;2023-04-29T03:00:58;8.95;;;8.00;;
39322;SDS011;25036;53.638;10.134;2023-04-29T03:01:58;8.67;;;7.20;;
39322;SDS011;25036;53.638;10.134;2023-04-29T03:02:58;9.03;;;7.43;;
39322;SDS011;25036;53.638;10.134;2023-04-29T03:03:58;9.10;;;8.15;;
39322;SDS011;25036;53.638;10.134;2023-04-29T03:04:58;9.57;;;7.47;;
39322;SDS011;25036;53.638;10.134;2023-04-29T03:05:58;8.70;;;7.80;;
39322;SDS011;25036;53.638;10.134;2023-04-29T03:06:59;8.03;;;7.17;;
39322;SDS011;25036;53.638;10.134;2023-04-29T03:07:59;8.98;;;7.43;;
39322;SDS011;25036;53.638;10.134;2023-04-29T03:08:59;9.13;;;7.75;;
39322;SDS011;25036;53.638;10.134;2023-04-29T03:09:59;9.32;;;8.13;;
39322;SDS011;25036;53.638;10.134;2023-04-29T03:11:00;8.15;;;7.35;;
39322;SDS011;25036;53.638;10.134;2023-04-29T03:12:01;8.20;;;7.40;;
39322;SDS011;25036;53.638;10.134;2023-04-29T03:13:01;8.15;;;7.28;;
39322;SDS011;25036;53.638;10.134;2023-04-29T03:14:02;8.48;;;7.60;;
39322;SDS011;25036;53.638;10.134;2023-04-29T03:15:02;10.80;;;7.93;;
39322;SDS011;25036;53.638;10.134;2023-04-29T03:16:04;8.35;;;7.55;;
39322;SDS011;25036;53.638;10.134;2023-04-29T03:17:05;9.38;;;8.00;;
39322;SDS011;25036;53.638;10.134;2023-04-29T03:18:05;9.53;;;7.83;;
39322;SDS011;25036;53.638;10.134;2023-04-29T03:19:06;9.23;;;7.70;;
39322;SDS011;25036;53.638;10.134;2023-04-29T03:20:06;8.63;;;7.60;;
39322;SDS011;25036;53.638;10.134;2023-04-29T03:21:06;10.25;;;7.50;;
39322;SDS011;25036;53.638;10.134;2023-04-29T03:22:06;10.77;;;7.63;;
39322;SDS011;25036;53.638;10.134;2023-04-29T03:23:10;8.30;;;7.47;;
39322;SDS011;25036;53.638;10.134;2023-04-29T03:24:11;9.27;;;8.13;;
39322;SDS011;25036;53.638;10.134;2023-04-29T03:25:11;11.87;;;7.83;;
39322;SDS011;25036;53.638;10.134;2023-04-29T03:26:12;8.32;;;7.43;;
39322;SDS011;25036;53.638;10.134;2023-04-29T03:27:12;8.77;;;7.87;;
39322;SDS011;25036;53.638;10.134;2023-04-29T03:28:13;12.35;;;8.38;;
39322;SDS011;25036;53.638;10.134;2023-04-29T03:29:13;8.75;;;7.78;;
39322;SDS011;25036;53.638;10.134;2023-04-29T03:30:14;9.50;;;7.73;;
39322;SDS011;25036;53.638;10.134;2023-04-29T03:31:14;10.15;;;8.10;;
39322;SDS011;25036;53.638;10.134;2023-04-29T03:32:15;8.98;;;8.07;;
39322;SDS011;25036;53.638;10.134;2023-04-29T03:33:15;9.20;;;8.30;;
39322;SDS011;25036;53.638;10.134;2023-04-29T03:34:16;13.05;;;7.78;;
39322;SDS011;25036;53.638;10.134;2023-04-29T03:35:16;8.60;;;7.70;;
39322;SDS011;25036;53.638;10.134;2023-04-29T03:36:16;7.88;;;7.05;;
39322;SDS011;25036;53.638;10.134;2023-04-29T03:37:16;8.88;;;7.15;;
39322;SDS011;25036;53.638;10.134;2023-04-29T03:38:16;8.77;;;7.85;;
39322;SDS011;25036;53.638;10.134;2023-04-29T03:39:17;8.83;;;7.27;;
39322;SDS011;25036;53.638;10.134;2023-04-29T03:40:17;10.57;;;7.57;;
39322;SDS011;25036;53.638;10.134;2023-04-29T03:41:17;8.63;;;7.40;;
39322;SDS011;25036;53.638;10.134;2023-04-29T03:42:18;8.68;;;7.80;;
39322;SDS011;25036;53.638;10.134;2023-04-29T03:43:18;10.88;;;8.35;;
39322;SDS011;25036;53.638;10.134;2023-04-29T03:44:18;9.70;;;7.77;;
39322;SDS011;25036;53.638;10.134;2023-04-29T03:45:18;10.20;;;7.53;;
39322;SDS011;25036;53.638;10.134;2023-04-29T03:46:18;8.33;;;7.60;;
39322;SDS011;25036;53.638;10.134;2023-04-29T03:47:18;8.67;;;7.47;;
39322;SDS011;25036;53.638;10.134;2023-04-29T03:48:18;8.87;;;7.77;;
39322;SDS011;25036;53.638;10.134;2023-04-29T03:49:21;9.38;;;8.20;;
39322;SDS011;25036;53.638;10.134;2023-04-29T03:50:22;10.38;;;8.05;;
39322;SDS011;25036;53.638;10.134;2023-04-29T03:51:23;9.45;;;7.68;;
39322;SDS011;25036;53.638;10.134;2023-04-29T03:52:23;8.27;;;7.47;;
39322;SDS011;25036;53.638;10.134;2023-04-29T03:53:23;9.40;;;8.20;;
39322;SDS011;25036;53.638;10.134;2023-04-29T03:54:25;8.70;;;7.80;;
39322;SDS011;25036;53.638;10.134;2023-04-29T03:55:25;10.30;;;8.15;;
39322;SDS011;25036;53.638;10.134;2023-04-29T03:56:26;10.18;;;8.55;;
39322;SDS011;25036;53.638;10.134;2023-04-29T03:57:26;9.30;;;8.30;;
39322;SDS011;25036;53.638;10.134;2023-04-29T03:58:26;9.90;;;8.10;;
39322;SDS011;25036;53.638;10.134;2023-04-29T03:59:26;10.07;;;8.43;;
39322;SDS011;25036;53.638;10.134;2023-04-29T04:00:26;9.60;;;8.60;;
39322;SDS011;25036;53.638;10.134;2023-04-29T04:01:30;9.15;;;7.32;;
39322;SDS011;25036;53.638;10.134;2023-04-29T04:02:30;11.33;;;8.47;;
39322;SDS011;25036;53.638;10.134;2023-04-29T04:03:30;10.87;;;7.73;;
39322;SDS011;25036;53.638;10.134;2023-04-29T04:04:31;9.23;;;8.18;;
39322;SDS011;25036;53.638;10.134;2023-04-29T04:05:31;10.13;;;8.18;;
39322;SDS011;25036;53.638;10.134;2023-04-29T04:06:32;11.17;;;7.97;;
39322;SDS011;25036;53.638;10.134;2023-04-29T04:07:32;9.53;;;7.93;;
39322;SDS011;25036;53.638;10.134;2023-04-29T04:08:32;9.00;;;7.90;;
39322;SDS011;25036;53.638;10.134;2023-04-29T04:09:32;10.13;;;8.10;;
39322;SDS011;25036;53.638;10.134;2023-04-29T04:10:32;9.88;;;7.93;;
39322;SDS011;25036;53.638;10.134;2023-04-29T04:11:32;10.33;;;7.63;;
39322;SDS011;25036;53.638;10.134;2023-04-29T04:12:33;9.33;;;7.40;;
39322;SDS011;25036;53.638;10.134;2023-04-29T04:13:33;12.27;;;7.60;;
39322;SDS011;25036;53.638;10.134;2023-04-29T04:14:33;7.93;;;7.23;;
39322;SDS011;25036;53.638;10.134;2023-04-29T04:15:33;9.32;;;7.80;;
39322;SDS011;25036;53.638;10.134;2023-04-29T04:16:33;8.47;;;7.67;;
39322;SDS011;25036;53.638;10.134;2023-04-29T04:17:33;10.47;;;7.80;;
39322;SDS011;25036;53.638;10.134;2023-04-29T04:18:33;9.57;;;8.20;;
39322;SDS011;25036;53.638;10.134;2023-04-29T04:19:33;10.17;;;7.83;;
39322;SDS011;25036;53.638;10.134;2023-04-29T04:20:37;8.60;;;7.53;;
39322;SDS011;25036;53.638;10.134;2023-04-29T04:21:37;8.80;;;7.50;;
39322;SDS011;25036;53.638;10.134;2023-04-29T04:22:37;8.13;;;7.33;;
39322;SDS011;25036;53.638;10.134;2023-04-29T04:23:37;12.57;;;7.97;;
39322;SDS011;25036;53.638;10.134;2023-04-29T04:24:41;8.70;;;7.55;;
39322;SDS011;25036;53.638;10.134;2023-04-29T04:25:47;7.87;;;7.17;;
39322;SDS011;25036;53.638;10.134;2023-04-29T04:26:47;8.77;;;7.88;;
39322;SDS011;25036;53.638;10.134;2023-04-29T04:27:47;9.13;;;7.60;;
39322;SDS011;25036;53.638;10.134;2023-04-29T04:28:48;9.68;;;7.78;;
39322;SDS011;25036;53.638;10.134;2023-04-29T04:29:51;9.23;;;8.23;;
39322;SDS011;25036;53.638;10.134;2023-04-29T04:30:52;8.38;;;7.57;;
39322;SDS011;25036;53.638;10.134;2023-04-29T04:31:52;8.97;;;7.40;;
39322;SDS011;25036;53.638;10.134;2023-04-29T04:32:52;8.60;;;7.65;;
39322;SDS011;25036;53.638;10.134;2023-04-29T04:33:52;9.90;;;7.77;;
39322;SDS011;25036;53.638;10.134;2023-04-29T04:34:52;9.82;;;7.88;;
39322;SDS011;25036;53.638;10.134;2023-04-29T04:35:53;9.57;;;7.90;;
39322;SDS011;25036;53.638;10.134;2023-04-29T04:36:53;7.95;;;7.18;;
39322;SDS011;25036;53.638;10.134;2023-04-29T04:37:53;8.20;;;7.37;;
39322;SDS011;25036;53.638;10.134;2023-04-29T04:38:53;7.70;;;6.90;;
39322;SDS011;25036;53.638;10.134;2023-04-29T04:39:53;7.63;;;6.33;;
39322;SDS011;25036;53.638;10.134;2023-04-29T04:40:54;9.77;;;7.53;;
39322;SDS011;25036;53.638;10.134;2023-04-29T04:41:54;8.93;;;6.50;;
39322;SDS011;25036;53.638;10.134;2023-04-29T04:42:54;7.83;;;6.97;;
39322;SDS011;25036;53.638;10.134;2023-04-29T04:43:54;8.52;;;7.20;;
39322;SDS011;25036;53.638;10.134;2023-04-29T04:44:54;10.23;;;7.17;;
39322;SDS011;25036;53.638;10.134;2023-04-29T04:45:54;10.18;;;6.38;;
39322;SDS011;25036;53.638;10.134;2023-04-29T04:46:55;9.18;;;7.13;;
39322;SDS011;25036;53.638;10.134;2023-04-29T04:47:55;7.70;;;6.82;;
39322;SDS011;25036;53.638;10.134;2023-04-29T04:48:55;10.98;;;6.90;;
39322;SDS011;25036;53.638;10.134;2023-04-29T04:49:56;7.57;;;6.80;;
39322;SDS011;25036;53.638;10.134;2023-04-29T04:50:56;8.50;;;6.93;;
39322;SDS011;25036;53.638;10.134;2023-04-29T04:51:56;8.20;;;6.37;;
39322;SDS011;25036;53.638;10.134;2023-04-29T04:52:56;7.13;;;6.33;;
39322;SDS011;25036;53.638;10.134;2023-04-29T04:53:56;10.32;;;6.65;;
39322;SDS011;25036;53.638;10.134;2023-04-29T04:54:56;9.20;;;6.40;;
39322;SDS011;25036;53.638;10.134;2023-04-29T04:55:59;6.47;;;5.83;;
39322;SDS011;25036;53.638;10.134;2023-04-29T04:56:59;8.10;;;6.80;;
39322;SDS011;25036;53.638;10.134;2023-04-29T04:58:02;8.82;;;7.22;;
39322;SDS011;25036;53.638;10.134;2023-04-29T04:59:02;7.85;;;6.55;;
39322;SDS011;25036;53.638;10.134;2023-04-29T05:00:02;8.27;;;6.63;;
39322;SDS011;25036;53.638;10.134;2023-04-29T05:01:04;8.63;;;6.80;;
39322;SDS011;25036;53.638;10.134;2023-04-29T05:02:04;8.85;;;6.90;;
39322;SDS011;25036;53.638;10.134;2023-04-29T05:03:04;6.90;;;6.20;;
39322;SDS011;25036;53.638;10.134;2023-04-29T05:04:04;9.47;;;6.90;;
39322;SDS011;25036;53.638;10.134;2023-04-29T05:05:04;8.67;;;6.50;;
39322;SDS011;25036;53.638;10.134;2023-04-29T05:06:05;7.13;;;6.07;;
39322;SDS011;25036;53.638;10.134;2023-04-29T05:07:05;7.30;;;5.60;;
39322;SDS011;25036;53.638;10.134;2023-04-29T05:08:05;7.70;;;6.23;;
39322;SDS011;25036;53.638;10.134;2023-04-29T05:09:05;6.90;;;6.00;;
39322;SDS011;25036;53.638;10.134;2023-04-29T05:10:06;7.97;;;6.57;;
39322;SDS011;25036;53.638;10.134;2023-04-29T05:11:14;8.48;;;6.55;;
39322;SDS011;25036;53.638;10.134;2023-04-29T05:12:14;7.35;;;6.10;;
39322;SDS011;25036;53.638;10.134;2023-04-29T05:13:14;7.93;;;6.47;;
39322;SDS011;25036;53.638;10.134;2023-04-29T05:14:15;7.30;;;6.18;;
39322;SDS011;25036;53.638;10.134;2023-04-29T05:15:16;7.53;;;5.85;;
39322;SDS011;25036;53.638;10.134;2023-04-29T05:16:18;6.82;;;6.00;;
39322;SDS011;25036;53.638;10.134;2023-04-29T05:17:18;7.37;;;6.13;;
39322;SDS011;25036;53.638;10.134;2023-04-29T05:18:18;8.87;;;6.60;;
39322;SDS011;25036;53.638;10.134;2023-04-29T05:19:18;9.43;;;6.43;;
39322;SDS011;25036;53.638;10.134;2023-04-29T05:20:19;7.65;;;6.25;;
39322;SDS011;25036;53.638;10.134;2023-04-29T05:21:20;6.35;;;5.72;;
39322;SDS011;25036;53.638;10.134;2023-04-29T05:22:20;8.40;;;6.27;;
39322;SDS011;25036;53.638;10.134;2023-04-29T05:23:20;6.53;;;5.77;;
39322;SDS011;25036;53.638;10.134;2023-04-29T05:24:22;9.63;;;6.07;;
39322;SDS011;25036;53.638;10.134;2023-04-29T05:25:22;6.80;;;6.10;;
39322;SDS011;25036;53.638;10.134;2023-04-29T05:26:22;7.80;;;5.80;;
39322;SDS011;25036;53.638;10.134;2023-04-29T05:27:22;9.18;;;5.93;;
39322;SDS011;25036;53.638;10.134;2023-04-29T05:28:22;9.70;;;5.85;;
39322;SDS011;25036;53.638;10.134;2023-04-29T05:29:23;9.67;;;5.83;;
39322;SDS011;25036;53.638;10.134;2023-04-29T05:30:23;9.23;;;5.65;;
39322;SDS011;25036;53.638;10.134;2023-04-29T05:31:23;9.23;;;6.20;;
39322;SDS011;25036;53.638;10.134;2023-04-29T05:32:23;6.57;;;5.87;;
39322;SDS011;25036;53.638;10.134;2023-04-29T05:33:23;8.80;;;5.90;;
39322;SDS011;25036;53.638;10.134;2023-04-29T05:34:24;7.07;;;5.33;;
39322;SDS011;25036;53.638;10.134;2023-04-29T05:35:24;6.38;;;5.57;;
39322;SDS011;25036;53.638;10.134;2023-04-29T05:36:24;7.30;;;6.30;;
39322;SDS011;25036;53.638;10.134;2023-04-29T05:37:26;7.50;;;5.68;;
39322;SDS011;25036;53.638;10.134;2023-04-29T05:38:29;10.05;;;6.15;;
39322;SDS011;25036;53.638;10.134;2023-04-29T05:39:30;8.18;;;6.32;;
39322;SDS011;25036;53.638;10.134;2023-04-29T05:40:30;7.23;;;5.63;;
39322;SDS011;25036;53.638;10.134;2023-04-29T05:41:30;9.27;;;5.90;;
39322;SDS011;25036;53.638;10.134;2023-04-29T05:42:30;8.17;;;5.97;;
39322;SDS011;25036;53.638;10.134;2023-04-29T05:43:30;8.15;;;6.20;;
39322;SDS011;25036;53.638;10.134;2023-04-29T05:44:31;8.37;;;6.00;;
39322;SDS011;25036;53.638;10.134;2023-04-29T05:45:31;8.50;;;5.43;;
39322;SDS011;25036;53.638;10.134;2023-04-29T05:46:32;7.23;;;6.10;;
39322;SDS011;25036;53.638;10.134;2023-04-29T05:47:32;7.67;;;5.77;;
39322;SDS011;25036;53.638;10.134;2023-04-29T05:48:32;8.93;;;5.90;;
39322;SDS011;25036;53.638;10.134;2023-04-29T05:49:32;6.53;;;5.50;;
39322;SDS011;25036;53.638;10.134;2023-04-29T05:50:33;7.27;;;6.03;;
39322;SDS011;25036;53.638;10.134;2023-04-29T05:51:34;6.43;;;5.50;;
39322;SDS011;25036;53.638;10.134;2023-04-29T05:52:34;7.05;;;5.72;;
39322;SDS011;25036;53.638;10.134;2023-04-29T05:53:34;7.67;;;5.53;;
39322;SDS011;25036;53.638;10.134;2023-04-29T05:54:38;7.90;;;6.03;;
39322;SDS011;25036;53.638;10.134;2023-04-29T05:55:39;7.10;;;5.63;;
39322;SDS011;25036;53.638;10.134;2023-04-29T05:56:39;9.05;;;5.35;;
39322;SDS011;25036;53.638;10.134;2023-04-29T05:57:40;5.78;;;5.15;;
39322;SDS011;25036;53.638;10.134;2023-04-29T05:58:40;6.68;;;5.55;;
39322;SDS011;25036;53.638;10.134;2023-04-29T05:59:40;6.45;;;5.30;;
39322;SDS011;25036;53.638;10.134;2023-04-29T06:00:40;7.37;;;5.90;;
39322;SDS011;25036;53.638;10.134;2023-04-29T06:01:42;5.82;;;5.10;;
39322;SDS011;25036;53.638;10.134;2023-04-29T06:02:42;8.47;;;5.63;;
39322;SDS011;25036;53.638;10.134;2023-04-29T06:03:44;9.10;;;5.53;;
39322;SDS011;25036;53.638;10.134;2023-04-29T06:04:44;9.43;;;5.70;;
39322;SDS011;25036;53.638;10.134;2023-04-29T06:05:46;7.93;;;5.72;;
39322;SDS011;25036;53.638;10.134;2023-04-29T06:06:46;6.77;;;5.17;;
39322;SDS011;25036;53.638;10.134;2023-04-29T06:07:46;6.03;;;5.43;;
39322;SDS011;25036;53.638;10.134;2023-04-29T06:08:46;8.37;;;5.30;;